Orbital elements of SKYTERRA 1
| Launched | 13 November 2010 |
| Flight ended | – |
| Launch site | Tyuratam Missile and Space Center, Kazakhstan (Also known as Baikonur Cosmodrome) |
| Owner | United States |
| NORAD ID | 37218 |
| Date fetched |
Epoch osculation |
Inc. [°] |
Ecc. | RA asc node [hr] |
Arg Peri. [°] |
Mean anom [°] |
Mean motion [rev/day] |
Abs. mag |
| Date fetched |
Epoch osculation |
Inc. [°] |
Ecc. | RA asc node [hr] |
Arg Peri. [°] |
Mean anom [°] |
Mean motion [rev/day] |
Abs. mag |
| 2026 May 01 17:56 | 2026 May 01 11:34:27 | 5.0281 | 0.00033 | 3.3921 | 17.3750 | 223.4314 | 1.00273 | 2.743 |
| 2026 Apr 30 17:56 | 2026 Apr 30 09:54:55 | 5.0260 | 0.00032 | 3.3922 | 15.2120 | 223.4314 | 1.00273 | 2.743 |
| 2026 Apr 29 17:57 | 2026 Apr 29 08:40:02 | 5.0239 | 0.00032 | 3.3923 | 13.9575 | 223.4314 | 1.00273 | 2.743 |
| 2026 Apr 28 17:56 | 2026 Apr 28 10:36:07 | 5.0221 | 0.00031 | 3.3924 | 13.8494 | 223.4314 | 1.00273 | 2.743 |
| 2026 Apr 27 17:58 | 2026 Apr 27 11:39:56 | 5.0203 | 0.00032 | 3.3922 | 25.2733 | 223.4314 | 1.00273 | 2.743 |
| 2026 Apr 26 17:58 | 2026 Apr 26 09:31:38 | 5.0180 | 0.00031 | 3.3922 | 24.7097 | 223.4314 | 1.00273 | 2.743 |
| 2026 Apr 25 17:58 | 2026 Apr 25 11:40:37 | 5.0161 | 0.00030 | 3.3921 | 24.0365 | 223.4314 | 1.00273 | 2.743 |
| 2026 Apr 24 17:59 | 2026 Apr 24 11:35:30 | 5.0139 | 0.00030 | 3.3921 | 23.7268 | 223.4314 | 1.00273 | 2.743 |
| 2026 Apr 23 17:57 | 2026 Apr 22 15:43:42 | 5.0097 | 0.00028 | 3.3919 | 21.1190 | 223.4314 | 1.00273 | 2.743 |
| 2026 Apr 22 17:57 | 2026 Apr 21 21:51:17 | 5.0078 | 0.00027 | 3.3919 | 20.9754 | 223.4314 | 1.00273 | 2.743 |
| 2026 Apr 21 17:57 | 2026 Apr 21 09:06:53 | 5.0065 | 0.00027 | 3.3918 | 21.1337 | 223.4314 | 1.00273 | 2.743 |
| 2026 Apr 20 17:57 | 2026 Apr 20 10:49:52 | 5.0043 | 0.00026 | 3.3918 | 20.5950 | 223.4314 | 1.00273 | 2.743 |
| 2026 Apr 19 17:58 | 2026 Apr 19 12:01:38 | 5.0019 | 0.00026 | 3.3917 | 20.1607 | 223.4314 | 1.00273 | 2.743 |
| 2026 Apr 18 17:56 | 2026 Apr 17 22:01:32 | 4.9980 | 0.00025 | 3.3917 | 18.1838 | 223.4314 | 1.00273 | 2.743 |
| 2026 Apr 16 17:57 | 2026 Apr 15 22:06:43 | 4.9935 | 0.00026 | 3.3916 | 17.6324 | 223.4314 | 1.00273 | 2.743 |
| 2026 Apr 14 17:57 | 2026 Apr 14 09:30:38 | 4.9900 | 0.00027 | 3.3916 | 16.5543 | 223.4314 | 1.00273 | 2.743 |
| 2026 Apr 13 17:57 | 2026 Apr 12 22:14:19 | 4.9867 | 0.00027 | 3.3917 | 15.0695 | 223.4314 | 1.00273 | 2.743 |
| 2026 Apr 12 17:57 | 2026 Apr 12 10:53:53 | 4.9857 | 0.00027 | 3.3918 | 14.7296 | 223.4314 | 1.00273 | 2.743 |
| 2026 Apr 11 17:57 | 2026 Apr 11 10:18:14 | 4.9837 | 0.00027 | 3.3919 | 13.6570 | 223.4314 | 1.00273 | 2.743 |
| 2026 Apr 10 17:58 | 2026 Apr 09 22:22:00 | 4.9805 | 0.00027 | 3.3920 | 11.9852 | 223.4314 | 1.00273 | 2.743 |
| 2026 Apr 09 18:01 | 2026 Apr 08 22:24:28 | 4.9784 | 0.00027 | 3.3921 | 9.9718 | 223.4314 | 1.00273 | 2.743 |
| 2026 Apr 08 17:57 | 2026 Apr 07 22:26:57 | 4.9764 | 0.00026 | 3.3922 | 8.4099 | 223.4314 | 1.00273 | 2.743 |
| 2026 Apr 07 17:57 | 2026 Apr 06 22:29:24 | 4.9744 | 0.00026 | 3.3923 | 6.7372 | 223.4314 | 1.00273 | 2.743 |
| 2026 Apr 06 17:57 | 2026 Apr 05 22:31:50 | 4.9724 | 0.00026 | 3.3924 | 4.7362 | 223.4314 | 1.00273 | 2.743 |
| 2026 Apr 05 17:56 | 2026 Apr 05 09:37:38 | 4.9714 | 0.00026 | 3.3925 | 4.1567 | 223.4314 | 1.00273 | 2.743 |
| 2026 Apr 04 17:57 | 2026 Apr 04 06:38:12 | 4.9691 | 0.00025 | 3.3926 | 1.8279 | 223.4314 | 1.00273 | 2.743 |